Time;durP1;ratioP1;P1;durP2;ratioP2;P2;SDS_P1;SDS_P2;PMS_P1;PMS_P2;Temp;Humidity;BMP_temperature;BMP_pressure;BME280_temperature;BME280_humidity;BME280_pressure;Samples;Min_cycle;Max_cycle;Signal;HPM_P1;HPM_P2
2022/07/09 00:01:36;;;;;;;;;7.75;6.25;;;;;22.86;45.13;102511.22;5100296;27;45351;-50
2022/07/09 00:04:02;;;;;;;;;6.00;4.25;;;;;22.78;45.08;102504.00;5100368;27;45378;-50
2022/07/09 00:06:28;;;;;;;;;4.00;4.00;;;;;22.82;45.05;102515.34;5100107;27;45600;-53
2022/07/09 00:08:55;;;;;;;;;8.50;4.00;;;;;22.79;44.82;102510.28;5099852;27;45260;-50
2022/07/09 00:11:20;;;;;;;;;8.50;4.00;;;;;22.74;45.69;102510.00;5100225;27;45880;-49
2022/07/09 00:13:46;;;;;;;;;5.75;5.75;;;;;22.63;45.50;102503.16;5100108;27;45546;-48
2022/07/09 00:16:11;;;;;;;;;6.50;5.00;;;;;22.72;45.82;102521.03;5099756;27;46867;-50
2022/07/09 00:18:36;;;;;;;;;5.25;4.25;;;;;22.70;45.73;102523.06;5099856;27;45174;-51
2022/07/09 00:21:02;;;;;;;;;5.50;5.50;;;;;22.69;45.52;102517.84;5099763;27;45277;-50
2022/07/09 00:23:27;;;;;;;;;7.75;6.00;;;;;22.65;46.31;102517.38;5100132;27;45431;-50
2022/07/09 00:25:52;;;;;;;;;5.25;5.25;;;;;22.63;46.37;102514.84;5099683;27;45477;-53
2022/07/09 00:28:18;;;;;;;;;9.00;6.50;;;;;22.59;45.99;102510.81;5099471;27;45186;-52
2022/07/09 00:30:43;;;;;;;;;7.25;7.00;;;;;22.57;46.16;102507.44;5099523;27;45571;-48
2022/07/09 00:33:09;;;;;;;;;9.50;6.50;;;;;22.54;45.66;102507.78;5099869;27;45340;-49
2022/07/09 00:35:34;;;;;;;;;10.00;7.00;;;;;22.51;46.55;102507.34;5099419;27;45887;-49
2022/07/09 00:38:00;;;;;;;;;6.50;6.50;;;;;22.50;46.63;102502.91;5099430;27;45334;-50
2022/07/09 00:40:25;;;;;;;;;7.50;7.00;;;;;22.47;46.87;102500.59;5099614;27;45363;-53
2022/07/09 00:42:50;;;;;;;;;6.00;6.00;;;;;22.45;46.81;102498.03;5099005;27;45477;-48
2022/07/09 00:45:17;;;;;;;;;8.00;8.00;;;;;22.41;47.11;102491.28;5099207;27;46242;-48
2022/07/09 00:47:43;;;;;;;;;3.25;2.25;;;;;22.41;46.95;102497.56;5099299;27;45489;-52
2022/07/09 00:50:09;;;;;;;;;6.25;6.25;;;;;22.39;47.21;102496.91;5099486;27;45531;-48
2022/07/09 00:52:36;;;;;;;;;7.50;6.25;;;;;22.37;46.56;102498.09;5099534;27;45255;-51
2022/07/09 00:55:03;;;;;;;;;9.50;6.00;;;;;22.35;47.31;102498.28;5114981;27;45201;-51
2022/07/09 00:57:29;;;;;;;;;5.00;5.00;;;;;22.31;47.09;102498.84;5098932;27;45261;-50
2022/07/09 00:59:56;;;;;;;;;7.25;7.25;;;;;22.32;47.58;102503.22;5099315;27;45361;-50
2022/07/09 01:02:22;;;;;;;;;5.75;5.75;;;;;22.27;47.47;102489.38;5099341;27;45326;-49
2022/07/09 01:04:48;;;;;;;;;8.00;6.00;;;;;22.27;47.85;102489.38;5098832;27;46073;-49
2022/07/09 01:07:13;;;;;;;;;5.50;5.50;;;;;22.28;48.09;102496.50;5099226;27;45515;-53
2022/07/09 01:09:39;;;;;;;;;6.00;6.00;;;;;22.25;48.21;102492.28;5099168;27;45643;-52
2022/07/09 01:12:06;;;;;;;;;7.25;6.00;;;;;22.23;47.74;102494.31;5099167;27;45482;-47
2022/07/09 01:14:31;;;;;;;;;8.00;8.00;;;;;22.14;48.24;102474.56;5098604;27;45252;-46
2022/07/09 01:17:02;;;;;;;;;6.75;6.00;;;;;22.17;47.80;102485.06;5098937;27;45480;-51
2022/07/09 01:19:28;;;;;;;;;5.00;5.00;;;;;22.13;47.37;102478.31;5098900;27;45385;-52
2022/07/09 01:21:54;;;;;;;;;7.50;6.00;;;;;22.12;48.29;102475.72;5099002;27;45451;-49
2022/07/09 01:24:19;;;;;;;;;6.00;6.00;;;;;22.09;48.15;102476.97;5098847;27;45328;-51
2022/07/09 01:26:45;;;;;;;;;3.25;3.25;;;;;22.03;48.10;102471.41;5098561;27;45280;-50
2022/07/09 01:29:10;;;;;;;;;7.00;5.25;;;;;22.04;47.92;102476.66;5098440;27;45417;-52
2022/07/09 01:31:36;;;;;;;;;6.25;6.25;;;;;21.99;48.03;102465.50;5098623;27;45231;-49
2022/07/09 01:34:02;;;;;;;;;7.75;7.75;;;;;22.00;48.31;102467.22;5098614;27;46410;-49
2022/07/09 01:36:27;;;;;;;;;5.50;5.50;;;;;21.98;48.45;102471.94;5098512;27;45373;-49
2022/07/09 01:38:52;;;;;;;;;6.75;5.75;;;;;21.97;48.63;102466.72;5098475;27;45217;-53
2022/07/09 01:41:18;;;;;;;;;7.00;5.75;;;;;21.95;48.59;102466.88;5098704;27;45376;-48
2022/07/09 01:43:43;;;;;;;;;7.00;7.00;;;;;21.91;48.81;102473.69;5098320;27;46107;-48
2022/07/09 01:46:08;;;;;;;;;8.75;8.75;;;;;21.93;49.00;102472.50;5098284;27;45267;-50
2022/07/09 01:48:35;;;;;;;;;7.00;7.00;;;;;21.93;48.75;102471.66;5098808;27;45261;-50
2022/07/09 01:51:01;;;;;;;;;8.75;7.25;;;;;21.92;48.80;102469.97;5098411;27;45244;-49
2022/07/09 01:53:26;;;;;;;;;8.00;7.75;;;;;21.91;48.96;102469.13;5097636;27;45491;-50
2022/07/09 01:55:52;;;;;;;;;8.00;8.00;;;;;21.90;48.73;102461.16;5097998;27;45493;-52
2022/07/09 01:58:17;;;;;;;;;7.25;7.00;;;;;21.89;49.11;102468.44;5098361;27;45420;-52
2022/07/09 02:00:43;;;;;;;;;5.00;5.00;;;;;21.90;48.70;102464.72;5098421;27;45408;-50
2022/07/09 02:03:08;;;;;;;;;9.00;8.50;;;;;21.89;48.88;102463.03;5098059;27;46203;-52
2022/07/09 02:05:34;;;;;;;;;7.50;7.50;;;;;21.88;49.14;102460.50;5098190;27;45335;-52
2022/07/09 02:07:59;;;;;;;;;9.25;7.00;;;;;21.88;49.32;102457.81;5098279;27;45456;-50
2022/07/09 02:10:25;;;;;;;;;7.75;7.75;;;;;21.85;48.65;102447.31;5098185;27;45386;-50
2022/07/09 02:12:50;;;;;;;;;7.00;7.00;;;;;21.79;49.07;102438.06;5098172;27;45261;-51
2022/07/09 02:15:15;;;;;;;;;7.75;7.00;;;;;21.84;48.89;102448.34;5098031;27;45427;-52
2022/07/09 02:17:41;;;;;;;;;9.00;7.00;;;;;21.83;48.79;102444.81;5098328;27;45255;-52
2022/07/09 02:20:08;;;;;;;;;8.00;7.25;;;;;21.68;48.99;102424.91;5098443;27;45680;-52
2022/07/09 02:22:34;;;;;;;;;6.25;6.25;;;;;21.73;49.34;102433.34;5097942;27;47163;-51
2022/07/09 02:24:59;;;;;;;;;10.00;8.75;;;;;21.80;49.50;102441.59;5097983;27;45367;-52
2022/07/09 02:27:25;;;;;;;;;8.50;7.00;;;;;21.80;49.38;102433.47;5097979;27;45431;-50
2022/07/09 02:29:50;;;;;;;;;7.00;7.00;;;;;21.77;49.44;102431.13;5097983;27;45334;-51
2022/07/09 02:32:15;;;;;;;;;10.00;8.00;;;;;21.75;49.52;102441.31;5097643;27;45426;-50
2022/07/09 02:34:41;;;;;;;;;9.75;6.25;;;;;21.75;49.18;102431.31;5097822;27;45397;-50
2022/07/09 02:37:07;;;;;;;;;7.00;6.00;;;;;21.74;49.50;102434.19;5097908;27;45576;-50
2022/07/09 02:39:32;;;;;;;;;8.50;8.00;;;;;21.73;49.73;102435.22;5097914;27;45303;-55
2022/07/09 02:41:58;;;;;;;;;7.00;6.00;;;;;21.73;49.41;102429.78;5097530;27;46216;-51
2022/07/09 02:44:23;;;;;;;;;5.75;5.75;;;;;21.71;49.80;102421.84;5097372;27;45461;-50
2022/07/09 02:46:49;;;;;;;;;7.00;6.75;;;;;21.63;49.79;102416.50;5097710;27;45289;-49
2022/07/09 02:49:14;;;;;;;;;8.50;8.00;;;;;21.66;49.34;102426.97;5097893;27;45488;-51
2022/07/09 02:51:40;;;;;;;;;6.25;6.25;;;;;21.66;49.87;102429.69;5097687;27;45229;-51
2022/07/09 02:54:05;;;;;;;;;8.50;8.50;;;;;21.63;50.12;102430.03;5097386;27;45424;-49
2022/07/09 02:56:31;;;;;;;;;8.00;7.00;;;;;21.61;49.73;102426.63;5097765;27;45297;-51
2022/07/09 02:58:56;;;;;;;;;6.00;6.00;;;;;21.60;50.41;102425.81;5097533;27;45396;-53
2022/07/09 03:01:21;;;;;;;;;6.75;6.50;;;;;21.58;49.72;102427.84;5097348;27;46173;-52
2022/07/09 03:03:47;;;;;;;;;8.00;7.00;;;;;21.59;49.91;102431.41;5095913;27;45637;-52
2022/07/09 03:06:13;;;;;;;;;7.50;7.50;;;;;21.56;50.35;102438.00;5099830;27;45426;-55
2022/07/09 03:08:39;;;;;;;;;7.75;5.00;;;;;21.50;50.00;102421.66;5101420;27;45319;-51
2022/07/09 03:11:06;;;;;;;;;8.00;6.00;;;;;21.53;49.83;102430.25;5100621;27;45478;-53
2022/07/09 03:13:35;;;;;;;;;8.50;6.75;;;;;21.52;50.13;102436.69;5101118;27;45485;-51
2022/07/09 03:16:02;;;;;;;;;6.50;6.00;;;;;21.39;50.17;102423.72;5100851;27;45375;-52
2022/07/09 03:18:27;;;;;;;;;9.00;8.00;;;;;21.47;50.42;102430.97;5101123;27;45435;-52
2022/07/09 03:20:52;;;;;;;;;6.75;6.50;;;;;21.46;50.48;102434.69;5100721;27;47076;-52
2022/07/09 03:23:18;;;;;;;;;7.00;7.00;;;;;21.45;50.55;102438.44;5100815;27;45443;-52
2022/07/09 03:25:43;;;;;;;;;7.00;6.50;;;;;21.43;50.43;102433.19;5101280;27;45307;-50
2022/07/09 03:28:09;;;;;;;;;7.50;6.00;;;;;21.41;50.84;102440.66;5101102;27;45340;-53
2022/07/09 03:30:34;;;;;;;;;7.00;7.00;;;;;21.37;50.72;102439.31;5100032;27;45515;-52
2022/07/09 03:33:00;;;;;;;;;13.67;9.00;;;;;21.38;50.80;102445.56;5100606;27;45509;-52
2022/07/09 03:35:26;;;;;;;;;8.00;8.00;;;;;21.37;50.11;102441.19;5100570;27;45291;-48
2022/07/09 03:37:51;;;;;;;;;9.33;9.00;;;;;21.34;50.79;102441.53;5100746;27;45593;-50
2022/07/09 03:40:16;;;;;;;;;6.75;6.75;;;;;21.18;51.08;102427.00;5100325;27;46089;-52
2022/07/09 03:42:42;;;;;;;;;9.00;9.00;;;;;21.28;50.47;102445.75;5100279;27;45311;-50
2022/07/09 03:45:07;;;;;;;;;9.00;7.00;;;;;21.28;50.56;102451.16;5100373;27;45780;-52
2022/07/09 03:47:33;;;;;;;;;11.33;9.00;;;;;21.23;50.62;102453.53;5100551;27;45390;-54
2022/07/09 03:49:58;;;;;;;;;8.33;8.33;;;;;21.20;51.00;102453.91;5099993;27;46417;-51
2022/07/09 03:52:23;;;;;;;;;8.25;8.00;;;;;21.14;50.64;102446.47;5100359;27;45422;-51
2022/07/09 03:54:49;;;;;;;;;8.00;7.00;;;;;21.14;50.88;102450.03;5100106;27;45416;-52
2022/07/09 03:57:14;;;;;;;;;9.75;8.00;;;;;21.11;51.45;102461.22;5100497;27;45427;-52
2022/07/09 03:59:39;;;;;;;;;13.00;9.67;;;;;21.06;51.12;102451.91;5099633;27;46126;-52
2022/07/09 04:02:05;;;;;;;;;10.75;9.00;;;;;21.08;51.29;102466.97;5100271;27;45498;-49
2022/07/09 04:04:31;;;;;;;;;7.67;7.67;;;;;21.08;51.71;102464.25;5100165;27;45240;-49
2022/07/09 04:06:56;;;;;;;;;9.50;9.50;;;;;21.07;51.99;102469.81;5100064;27;45294;-51
2022/07/09 04:09:22;;;;;;;;;9.00;9.00;;;;;21.05;51.12;102466.47;5099875;27;45932;-49
2022/07/09 04:11:48;;;;;;;;;10.25;8.00;;;;;21.02;51.75;102462.22;5099980;27;45220;-52
2022/07/09 04:14:14;;;;;;;;;11.67;10.00;;;;;21.02;51.72;102469.50;5100273;27;45233;-49
2022/07/09 04:16:40;;;;;;;;;9.00;9.00;;;;;20.98;51.21;102471.72;5099531;27;45481;-49
2022/07/09 04:19:06;;;;;;;;;6.67;5.67;;;;;20.99;51.29;102472.59;5099440;27;46181;-57
2022/07/09 04:21:31;;;;;;;;;9.67;9.67;;;;;20.98;51.52;102468.16;5099943;27;45414;-53
2022/07/09 04:23:56;;;;;;;;;11.33;8.67;;;;;20.96;51.57;102473.75;5099911;27;45383;-53
2022/07/09 04:26:23;;;;;;;;;10.33;8.67;;;;;20.86;51.33;102460.44;5099873;27;45473;-50
2022/07/09 04:28:49;;;;;;;;;8.00;8.00;;;;;20.94;51.36;102475.78;5099548;27;46218;-54
2022/07/09 04:31:15;;;;;;;;;11.33;10.00;;;;;20.92;52.00;102459.72;5099188;27;45394;-52
2022/07/09 04:33:41;;;;;;;;;9.33;9.00;;;;;20.97;51.77;102475.44;5099954;27;45531;-51
2022/07/09 04:36:07;;;;;;;;;8.00;8.00;;;;;20.97;51.76;102471.91;5099971;27;45333;-48
2022/07/09 04:38:32;;;;;;;;;9.50;9.50;;;;;20.96;51.53;102460.25;5099383;27;46847;-51
2022/07/09 04:40:58;;;;;;;;;11.67;9.00;;;;;20.98;52.11;102463.59;5099339;27;45320;-54
2022/07/09 04:43:23;;;;;;;;;9.00;9.00;;;;;20.99;51.80;102468.00;5099403;27;45347;-50
2022/07/09 04:45:48;;;;;;;;;9.00;9.00;;;;;20.99;51.96;102473.44;5099656;27;45492;-52
2022/07/09 04:48:14;;;;;;;;;7.00;7.00;;;;;20.97;51.56;102472.75;5099238;27;45320;-51
2022/07/09 04:50:39;;;;;;;;;11.33;9.33;;;;;20.96;51.92;102468.34;5099189;27;45486;-49
2022/07/09 04:53:04;;;;;;;;;12.25;9.00;;;;;20.93;51.73;102464.13;5099469;27;45455;-49
2022/07/09 04:55:30;;;;;;;;;10.67;10.67;;;;;20.93;51.52;102466.81;5099376;27;45712;-52
2022/07/09 04:57:55;;;;;;;;;10.25;7.75;;;;;20.92;51.49;102464.31;5099065;27;46307;-47
2022/07/09 05:00:21;;;;;;;;;10.00;10.00;;;;;20.91;51.52;102466.16;5098924;27;45306;-51
2022/07/09 05:02:46;;;;;;;;;11.00;9.00;;;;;20.91;51.57;102462.63;5099451;27;45647;-49
2022/07/09 05:05:13;;;;;;;;;12.00;10.00;;;;;20.92;51.91;102472.41;5099506;27;45408;-51
2022/07/09 05:07:40;;;;;;;;;12.67;8.33;;;;;20.90;52.00;102467.19;5098835;27;46190;-52
2022/07/09 05:10:05;;;;;;;;;15.25;9.50;;;;;20.90;51.48;102469.91;5098935;27;45252;-49
2022/07/09 05:12:31;;;;;;;;;8.00;8.00;;;;;20.91;52.06;102468.88;5099305;27;45392;-51
2022/07/09 05:14:57;;;;;;;;;9.00;6.00;;;;;20.93;51.79;102477.66;5099243;27;45241;-50
2022/07/09 05:17:23;;;;;;;;;8.00;8.00;;;;;20.93;51.49;102469.53;5114626;27;47316;-52
2022/07/09 05:19:49;;;;;;;;;9.33;9.33;;;;;20.95;51.52;102469.38;5098771;27;45269;-48
2022/07/09 05:22:15;;;;;;;;;9.67;8.00;;;;;20.97;51.80;102474.59;5098766;27;45353;-50
2022/07/09 05:24:40;;;;;;;;;9.00;9.00;;;;;21.02;51.54;102483.03;5099039;27;45504;-49
2022/07/09 05:27:06;;;;;;;;;8.50;7.50;;;;;21.03;51.27;102472.06;5098587;27;46135;-49
2022/07/09 05:29:32;;;;;;;;;12.00;9.67;;;;;21.05;50.98;102475.44;5098702;27;45380;-51
2022/07/09 05:31:58;;;;;;;;;11.67;10.00;;;;;21.05;51.38;102466.47;5097094;27;45424;-48
2022/07/09 05:34:24;;;;;;;;;11.00;11.00;;;;;21.08;50.71;102477.78;5098919;27;45366;-52
2022/07/09 05:36:51;;;;;;;;;9.75;9.00;;;;;21.09;51.27;102476.78;5098441;27;46352;-47
2022/07/09 05:39:17;;;;;;;;;10.00;9.00;;;;;21.10;50.85;102478.44;5098431;27;45488;-48
2022/07/09 05:41:42;;;;;;;;;11.00;10.00;;;;;21.12;51.07;102479.13;5098756;27;45276;-49
2022/07/09 05:44:07;;;;;;;;;9.00;9.00;;;;;21.13;51.15;102478.09;5098908;27;45499;-51
2022/07/09 05:46:33;;;;;;;;;9.00;8.00;;;;;21.14;50.74;102474.38;5098537;27;45335;-52
2022/07/09 05:48:58;;;;;;;;;13.00;13.00;;;;;21.16;50.68;102474.22;5098351;27;45530;-52
2022/07/09 05:51:23;;;;;;;;;9.67;8.33;;;;;21.16;50.74;102466.09;5098665;27;45246;-52
2022/07/09 05:53:49;;;;;;;;;12.50;10.25;;;;;21.16;51.37;102464.25;5098572;27;45228;-47
2022/07/09 05:56:14;;;;;;;;;9.50;9.50;;;;;21.23;51.34;102471.63;5098144;27;46277;-50
2022/07/09 05:58:40;;;;;;;;;10.00;9.00;;;;;21.26;50.68;102468.59;5098221;27;45304;-50
2022/07/09 06:01:06;;;;;;;;;13.25;10.00;;;;;21.31;51.10;102483.28;5098160;27;45297;-50
2022/07/09 06:03:31;;;;;;;;;11.00;11.00;;;;;21.39;50.67;102477.03;5097859;27;45310;-49
2022/07/09 06:05:57;;;;;;;;;9.33;8.33;;;;;21.47;50.79;102474.28;5097921;27;45688;-49
2022/07/09 06:08:24;;;;;;;;;10.75;9.00;;;;;21.61;50.78;102472.69;5098020;27;45370;-50
2022/07/09 06:10:50;;;;;;;;;10.00;10.00;;;;;21.70;50.69;102470.75;5098132;27;45285;-50
2022/07/09 06:13:15;;;;;;;;;13.00;11.00;;;;;21.73;50.21;102468.56;5098215;27;45362;-52
2022/07/09 06:15:40;;;;;;;;;12.25;11.75;;;;;21.83;50.32;102471.06;5098018;27;46198;-52
2022/07/09 06:18:05;;;;;;;;;11.00;8.75;;;;;21.89;49.85;102481.16;5097837;27;45414;-51
2022/07/09 06:20:31;;;;;;;;;10.00;10.00;;;;;21.95;49.95;102475.00;5097968;27;45247;-55
2022/07/09 06:22:57;;;;;;;;;10.75;10.75;;;;;21.98;49.79;102468.41;5098191;27;45492;-51
2022/07/09 06:25:22;;;;;;;;;10.25;9.25;;;;;22.06;49.64;102476.47;5097624;27;46674;-49
2022/07/09 06:27:48;;;;;;;;;10.00;10.00;;;;;22.10;49.86;102467.78;5097815;27;45572;-49
2022/07/09 06:30:13;;;;;;;;;12.50;10.50;;;;;22.16;49.33;102471.66;5097708;27;45251;-55
2022/07/09 06:32:39;;;;;;;;;13.25;10.25;;;;;22.24;49.56;102476.19;5097671;27;45522;-51
2022/07/09 06:35:04;;;;;;;;;12.75;10.50;;;;;22.31;49.24;102475.28;5097970;27;46048;-50
2022/07/09 06:37:30;;;;;;;;;12.00;9.00;;;;;22.44;49.03;102474.66;5097576;27;45907;-49
2022/07/09 06:39:56;;;;;;;;;15.00;12.00;;;;;22.61;48.83;102464.50;5097413;27;45339;-51
2022/07/09 06:42:22;;;;;;;;;9.75;9.75;;;;;22.82;48.30;102461.91;5097959;27;45469;-49
2022/07/09 06:44:48;;;;;;;;;11.00;10.00;;;;;23.13;47.86;102463.63;5097472;27;46212;-50
2022/07/09 06:47:13;;;;;;;;;13.25;10.75;;;;;23.54;47.15;102465.81;5097487;27;45527;-52
2022/07/09 06:49:39;;;;;;;;;15.00;11.00;;;;;24.01;45.67;102469.91;5097817;27;45417;-50
2022/07/09 06:52:04;;;;;;;;;11.25;9.00;;;;;24.57;45.91;102470.03;5113706;27;45413;-49
2022/07/09 06:54:30;;;;;;;;;13.75;11.50;;;;;25.13;43.46;102468.13;5097726;27;46224;-55
2022/07/09 06:56:58;;;;;;;;;11.00;11.00;;;;;25.80;42.34;102463.78;5097605;27;45485;-52
2022/07/09 06:59:24;;;;;;;;;11.00;9.75;;;;;26.40;41.24;102446.63;5097764;27;45290;-54
2022/07/09 07:01:50;;;;;;;;;13.25;10.50;;;;;27.17;40.37;102456.81;5096420;27;45470;-52
2022/07/09 07:04:15;;;;;;;;;9.25;9.00;;;;;27.71;39.42;102438.28;5096352;27;46318;-53
2022/07/09 07:06:41;;;;;;;;;8.75;8.75;;;;;28.41;37.92;102450.00;5097220;27;45343;-54
2022/07/09 07:09:07;;;;;;;;;11.00;9.60;;;;;28.94;37.34;102457.66;5097547;27;45489;-50
2022/07/09 07:11:33;;;;;;;;;11.75;8.75;;;;;29.56;36.57;102452.94;5097525;27;45530;-49
2022/07/09 07:13:58;;;;;;;;;8.75;8.75;;;;;30.14;34.97;102442.38;5097059;27;45901;-51
2022/07/09 07:16:23;;;;;;;;;11.75;11.00;;;;;30.75;34.17;102446.63;5097280;27;45372;-50
2022/07/09 07:18:49;;;;;;;;;13.50;9.75;;;;;31.34;33.05;102447.34;5097264;27;45723;-50
2022/07/09 07:21:14;;;;;;;;;6.00;6.00;;;;;32.33;31.81;102435.06;5097618;27;45315;-49
2022/07/09 07:23:39;;;;;;;;;8.00;7.75;;;;;34.16;29.79;102447.50;5097481;27;45935;-50
2022/07/09 07:26:05;;;;;;;;;7.00;6.75;;;;;35.79;27.10;102447.47;5097443;27;45892;-49
2022/07/09 07:28:31;;;;;;;;;9.00;6.00;;;;;37.02;25.46;102445.38;5097378;27;45726;-53
2022/07/09 07:30:56;;;;;;;;;9.00;9.00;;;;;37.88;24.74;102446.78;5097053;27;45170;-50
2022/07/09 07:33:22;;;;;;;;;8.50;7.00;;;;;38.85;22.52;102445.84;5096576;27;46269;-52
2022/07/09 07:35:48;;;;;;;;;7.00;6.00;;;;;39.96;21.07;102445.34;5097061;27;45263;-51
2022/07/09 07:38:13;;;;;;;;;6.20;5.80;;;;;41.05;19.71;102443.00;5097010;27;45375;-52
2022/07/09 07:40:39;;;;;;;;;7.50;7.50;;;;;42.09;18.88;102443.84;5096989;27;45342;-51
2022/07/09 07:43:04;;;;;;;;;8.00;7.00;;;;;42.94;18.77;102450.16;5096787;27;45345;-50
2022/07/09 07:45:31;;;;;;;;;6.00;6.00;;;;;43.60;17.64;102444.44;5096595;27;45566;-50
2022/07/09 07:47:56;;;;;;;;;7.40;7.40;;;;;43.80;19.58;102454.16;5096928;27;45454;-50
2022/07/09 07:50:22;;;;;;;;;6.00;6.00;;;;;44.23;17.34;102445.63;5096959;27;45360;-52
2022/07/09 07:52:48;;;;;;;;;5.60;4.00;;;;;44.88;16.90;102448.31;5097848;27;46995;-51
2022/07/09 07:55:13;;;;;;;;;5.75;5.00;;;;;45.42;16.21;102440.84;5100307;27;45522;-51
2022/07/09 07:57:39;;;;;;;;;5.50;4.00;;;;;45.85;15.27;102442.44;5100387;27;45240;-50
2022/07/09 08:00:05;;;;;;;;;7.00;4.75;;;;;46.15;15.74;102437.44;5100454;27;45319;-52
2022/07/09 08:02:30;;;;;;;;;5.20;5.20;;;;;46.37;15.25;102438.19;5099902;27;46186;-52
2022/07/09 08:04:56;;;;;;;;;5.00;5.00;;;;;46.91;14.97;102427.47;5099868;27;45394;-52
2022/07/09 08:07:22;;;;;;;;;6.00;5.50;;;;;47.39;14.00;102439.81;5100180;27;45233;-51
2022/07/09 08:09:47;;;;;;;;;10.25;6.75;;;;;47.58;16.92;102402.50;5100074;27;45217;-58
2022/07/09 08:12:12;;;;;;;;;5.00;5.00;;;;;47.73;15.02;102448.81;5099858;27;45277;-57
2022/07/09 08:14:38;;;;;;;;;4.50;4.50;;;;;47.95;13.23;102438.94;5099788;27;45413;-57
2022/07/09 08:17:03;;;;;;;;;27.00;21.00;;;;;48.23;13.19;102434.03;5099865;27;45619;-57
2022/07/09 08:19:28;;;;;;;;;5.00;4.50;;;;;48.78;13.32;102434.19;5099955;27;45486;-56
2022/07/09 08:21:54;;;;;;;;;4.25;3.75;;;;;49.23;12.94;102434.78;5099609;27;46072;-56
2022/07/09 08:24:19;;;;;;;;;4.25;4.25;;;;;49.61;12.81;102426.25;5099817;27;45252;-55
2022/07/09 08:26:45;;;;;;;;;5.50;5.50;;;;;49.81;12.47;102432.66;5099927;27;45161;-56
2022/07/09 08:29:10;;;;;;;;;4.00;4.00;;;;;49.79;12.84;102422.94;5099940;27;45313;-55
2022/07/09 08:31:35;;;;;;;;;7.50;3.00;;;;;49.74;12.41;102426.91;5099285;27;46040;-55
2022/07/09 08:34:01;;;;;;;;;3.00;3.00;;;;;50.05;12.19;102419.38;5099516;27;45288;-55
2022/07/09 08:36:26;;;;;;;;;4.00;4.00;;;;;50.36;12.07;102423.91;5099749;27;45464;-56
2022/07/09 08:38:52;;;;;;;;;5.25;4.25;;;;;50.63;11.33;102428.41;5099781;27;45473;-56
2022/07/09 08:41:19;;;;;;;;;6.75;3.75;;;;;50.76;11.76;102434.66;5099420;27;45901;-55
2022/07/09 08:43:50;;;;;;;;;6.40;5.40;;;;;50.74;12.50;102433.41;5098170;27;45453;-56
2022/07/09 08:46:15;;;;;;;;;3.20;3.00;;;;;51.04;11.40;102425.75;5099434;27;45364;-55
2022/07/09 08:48:43;;;;;;;;;5.75;3.75;;;;;51.07;10.82;102424.97;5099549;27;45743;-55
2022/07/09 08:51:09;;;;;;;;;4.60;2.80;;;;;51.58;11.11;102420.72;5099306;27;47432;-56
2022/07/09 08:53:40;;;;;;;;;4.20;4.20;;;;;51.92;11.62;102414.97;5099173;27;45636;-56
2022/07/09 08:56:07;;;;;;;;;4.60;3.60;;;;;52.02;10.74;102419.94;5099172;27;45343;-56
2022/07/09 08:58:32;;;;;;;;;3.80;3.80;;;;;52.42;10.62;102415.34;5099416;27;45313;-56
2022/07/09 09:00:58;;;;;;;;;2.75;2.75;;;;;52.36;10.81;102412.91;5099308;27;45992;-58
2022/07/09 09:03:24;;;;;;;;;4.75;3.75;;;;;52.77;10.77;102403.41;5098703;27;45371;-57
2022/07/09 09:06:06;;;;;;;;;5.50;3.25;;;;;53.03;10.12;102410.84;5098668;27;45555;-55
2022/07/09 09:08:40;;;;;;;;;3.80;3.80;;;;;53.27;10.64;102397.94;5093940;27;45454;-58
2022/07/09 09:11:08;;;;;;;;;7.00;6.00;;;;;53.71;10.08;102405.34;5098079;27;45468;-55
2022/07/09 09:13:40;;;;;;;;;5.80;4.40;;;;;53.87;9.84;102397.22;5098748;27;45428;-56
2022/07/09 09:16:07;;;;;;;;;3.80;3.20;;;;;54.12;8.74;102402.09;5098719;27;45212;-55
2022/07/09 09:18:36;;;;;;;;;4.20;4.20;;;;;54.13;9.52;102398.00;5098784;27;45589;-56
2022/07/09 09:21:06;;;;;;;;;7.00;3.60;;;;;54.14;9.83;102394.75;5098249;27;45341;-54
2022/07/09 09:23:41;;;;;;;;;2.60;2.60;;;;;54.30;9.91;102397.19;5098377;27;45483;-57
2022/07/09 09:26:12;;;;;;;;;2.00;2.00;;;;;54.13;9.01;102393.13;5098570;27;45977;-59
2022/07/09 09:28:47;;;;;;;;;3.80;3.60;;;;;54.44;8.99;102396.31;5098804;27;45224;-57
2022/07/09 09:31:25;;;;;;;;;3.00;3.00;;;;;54.42;9.82;102398.78;5097770;27;46421;-55
2022/07/09 09:33:55;;;;;;;;;3.40;3.40;;;;;54.21;9.26;102396.81;5098256;27;46105;-56
2022/07/09 09:36:29;;;;;;;;;2.80;2.80;;;;;54.16;9.09;102397.19;5098384;27;45251;-59
2022/07/09 09:38:54;;;;;;;;;4.00;3.20;;;;;54.21;9.25;102397.63;5098797;27;45516;-56
2022/07/09 09:41:24;;;;;;;;;3.00;3.00;;;;;54.08;9.67;102400.06;5097916;27;45410;-55
2022/07/09 09:43:56;;;;;;;;;4.00;2.20;;;;;53.98;10.20;102400.06;5098178;27;45465;-56
2022/07/09 09:46:23;;;;;;;;;4.20;3.00;;;;;54.01;9.18;102396.41;5098171;27;45418;-56
2022/07/09 09:48:50;;;;;;;;;3.60;3.60;;;;;54.15;8.63;102404.09;5098115;27;45235;-56
2022/07/09 09:51:19;;;;;;;;;2.80;2.60;;;;;54.35;9.19;102398.81;5097188;27;46068;-56
2022/07/09 09:53:45;;;;;;;;;4.80;3.20;;;;;54.37;10.01;102394.34;5097126;27;45311;-55
2022/07/09 09:56:11;;;;;;;;;3.20;3.20;;;;;54.47;8.80;102404.88;5098044;27;45724;-56
2022/07/09 09:58:37;;;;;;;;;4.25;3.00;;;;;54.40;8.62;102399.19;5098360;27;45431;-56
2022/07/09 10:01:02;;;;;;;;;2.75;2.75;;;;;54.29;9.66;102409.81;5097843;27;46253;-55
2022/07/09 10:03:30;;;;;;;;;5.75;3.25;;;;;54.22;9.30;102402.09;5097880;27;45251;-55
2022/07/09 10:05:55;;;;;;;;;3.00;3.00;;;;;53.77;9.87;102398.00;5098003;27;45371;-56
2022/07/09 10:08:20;;;;;;;;;4.00;2.50;;;;;53.70;8.37;102395.19;5098057;27;45471;-55
2022/07/09 10:10:52;;;;;;;;;3.25;2.50;;;;;53.58;10.24;102391.50;5097674;27;45693;-55
2022/07/09 10:13:21;;;;;;;;;3.80;2.20;;;;;53.29;9.90;102396.31;5098085;27;45856;-56
2022/07/09 10:15:51;;;;;;;;;3.60;3.60;;;;;52.74;10.24;102381.47;5097011;27;45303;-56
2022/07/09 10:18:19;;;;;;;;;3.80;3.00;;;;;52.43;10.82;102365.84;5097407;27;45353;-57
2022/07/09 10:20:45;;;;;;;;;4.80;4.00;;;;;51.54;10.70;102381.00;5096558;27;46366;-56
2022/07/09 10:23:24;;;;;;;;;3.75;3.75;;;;;51.28;10.41;102383.91;5096007;27;45338;-56
2022/07/09 10:25:52;;;;;;;;;5.00;3.00;;;;;50.78;11.42;102384.09;5097900;27;45354;-57
2022/07/09 10:28:19;;;;;;;;;3.20;3.20;;;;;50.91;10.92;102384.69;5097874;27;45207;-56
2022/07/09 10:30:46;;;;;;;;;4.00;3.00;;;;;50.78;11.52;102381.28;5097180;27;46474;-56
2022/07/09 10:33:13;;;;;;;;;4.00;3.20;;;;;50.78;11.18;102380.44;5097582;27;45392;-55
2022/07/09 10:36:09;;;;;;;;;3.00;3.00;;;;;50.72;11.58;102379.16;5097510;27;45409;-56
2022/07/09 10:38:36;;;;;;;;;5.80;4.20;;;;;50.85;11.67;102372.03;5098026;27;45536;-56
2022/07/09 10:41:03;;;;;;;;;7.40;6.00;;;;;50.25;11.66;102369.16;5097676;27;45427;-56
2022/07/09 10:43:45;;;;;;;;;4.20;4.20;;;;;49.13;11.99;102371.97;5097501;27;45359;-57
2022/07/09 10:46:12;;;;;;;;;3.80;3.80;;;;;48.52;12.79;102367.00;5097850;27;45428;-56
2022/07/09 10:48:38;;;;;;;;;4.60;4.60;;;;;48.52;12.09;102360.53;5097525;27;45484;-56
2022/07/09 10:51:03;;;;;;;;;7.50;4.25;;;;;45.92;14.00;102358.28;5097208;27;46586;-57
2022/07/09 10:53:29;;;;;;;;;4.00;4.00;;;;;44.98;14.53;102361.69;5097392;27;45268;-56
2022/07/09 10:55:55;;;;;;;;;5.50;4.00;;;;;44.01;14.93;102361.75;5097471;27;45237;-55
2022/07/09 10:58:23;;;;;;;;;4.00;3.40;;;;;42.88;15.97;102347.03;5097818;27;45436;-56
2022/07/09 11:00:59;;;;;;;;;5.00;4.20;;;;;41.70;16.99;102346.75;5097306;27;46450;-55
2022/07/09 11:03:26;;;;;;;;;5.60;4.00;;;;;40.66;17.02;102346.69;5097170;27;45434;-55
2022/07/09 11:05:52;;;;;;;;;3.00;3.00;;;;;39.55;18.64;102342.94;5097056;27;45467;-55
2022/07/09 11:08:18;;;;;;;;;4.00;4.00;;;;;38.68;18.68;102337.81;5097439;27;45208;-56
2022/07/09 11:10:43;;;;;;;;;4.75;4.00;;;;;37.83;20.18;102330.97;5096995;27;46359;-56
2022/07/09 11:13:09;;;;;;;;;4.00;3.75;;;;;37.19;20.77;102332.06;5097201;27;45416;-57
2022/07/09 11:15:35;;;;;;;;;4.00;4.00;;;;;36.73;22.12;102332.31;5097130;27;45729;-55
2022/07/09 11:18:09;;;;;;;;;4.20;4.20;;;;;36.26;21.93;102330.81;5097375;27;45347;-56
2022/07/09 11:20:45;;;;;;;;;3.00;3.00;;;;;35.82;21.57;102327.81;5096860;27;46418;-55